Terminal Aerodrome Forecast
Issued by NWS Charleston, WV

Home | Current Version | Previous Version | Text Only | Print | Product List | Glossary On
Versions: 1 2 3 4 5 6 7 8 9 10 11 12 13 14 15 16 17 18 19 20 21 22 23 24 25
000
FTUS41 KRLX 302323
TAFBKW
TAF
KBKW 302323Z 3100/3124 17005KT P6SM SCT045
     FM310700 17004KT 6SM BR FEW110
     FM311300 19005KT P6SM SCT045
     FM311800 22008KT P6SM VCTS BKN045CB
     FM312300 20006KT P6SM SHRA VCTS BKN045CB=

USA.gov is the U.S. government's official web portal to all federal, state and local government web resources and services.